Time;durP1;ratioP1;P1;durP2;ratioP2;P2;SDS_P1;SDS_P2;PMS_P1;PMS_P2;Temp;Humidity;BMP_temperature;BMP_pressure;BME280_temperature;BME280_humidity;BME280_pressure;Samples;Min_cycle;Max_cycle;Signal;HPM_P1;HPM_P2
2021/09/23 00:00:06;;;;;;;;;;;15.20;99.90;;;;;;4899618;29;20359;-74
2021/09/23 00:03:21;;;;;;;;;;;15.20;99.90;;;;;;4899635;29;19919;-75
2021/09/23 00:05:24;;;;;;;;;;;15.20;99.90;;;;;;4896525;29;19912;-76
2021/09/23 00:07:50;;;;;;;;;;;15.20;99.90;;;;;;4899793;29;20384;-76
2021/09/23 00:10:18;;;;;;;;;;;15.20;99.90;;;;;;4899441;29;19911;-76
2021/09/23 00:12:44;;;;;;;;;;;15.20;99.90;;;;;;4899729;29;19926;-77
2021/09/23 00:15:10;;;;;;;;;;;15.10;99.90;;;;;;4897661;29;19911;-76
2021/09/23 00:17:35;;;;;;;;;;;15.10;99.90;;;;;;4899203;29;19911;-76
2021/09/23 00:20:02;;;;;;;;;;;15.10;99.90;;;;;;4898050;29;19968;-76
2021/09/23 00:22:28;;;;;;;;;;;15.00;99.90;;;;;;4899417;29;20393;-76
2021/09/23 00:24:53;;;;;;;;;;;15.00;99.90;;;;;;4900017;29;19946;-76
2021/09/23 00:27:18;;;;;;;;;;;15.00;99.90;;;;;;4898080;29;20279;-76
2021/09/23 00:29:45;;;;;;;;;;;15.00;99.90;;;;;;4898050;29;19911;-76
2021/09/23 00:32:10;;;;;;;;;;;15.00;99.90;;;;;;4899545;29;19911;-76
2021/09/23 00:34:36;;;;;;;;;;;15.00;99.90;;;;;;4899952;29;20007;-76
2021/09/23 00:37:01;;;;;;;;;;;15.00;99.90;;;;;;4899552;29;19915;-75
2021/09/23 00:39:27;;;;;;;;;;;15.00;99.90;;;;;;4899803;29;19934;-76
2021/09/23 00:41:52;;;;;;;;;;;15.00;99.90;;;;;;4914559;29;20325;-74
2021/09/23 00:44:19;;;;;;;;;;;15.00;99.90;;;;;;4900390;29;19916;-76
2021/09/23 00:46:46;;;;;;;;;;;15.00;99.90;;;;;;4899663;29;20373;-76
2021/09/23 00:49:11;;;;;;;;;;;15.00;99.90;;;;;;4901699;29;19915;-76
2021/09/23 00:51:37;;;;;;;;;;;15.00;99.90;;;;;;4912985;29;19911;-76
2021/09/23 00:54:03;;;;;;;;;;;15.00;99.90;;;;;;4916861;29;20381;-77
2021/09/23 00:56:28;;;;;;;;;;;15.00;99.90;;;;;;4917799;29;19916;-77
2021/09/23 00:58:54;;;;;;;;;;;15.00;99.90;;;;;;4917603;29;19919;-77
2021/09/23 01:01:19;;;;;;;;;;;15.00;99.90;;;;;;4915233;29;19936;-73
2021/09/23 01:03:45;;;;;;;;;;;14.90;99.90;;;;;;4910424;29;19983;-74
2021/09/23 01:06:10;;;;;;;;;;;14.90;99.90;;;;;;4924203;29;20276;-73
2021/09/23 01:08:39;;;;;;;;;;;14.90;99.90;;;;;;4911559;29;19987;-73
2021/09/23 01:11:06;;;;;;;;;;;14.90;99.90;;;;;;4929415;29;19922;-74
2021/09/23 01:13:32;;;;;;;;;;;14.80;99.90;;;;;;4938320;29;19946;-75
2021/09/23 01:15:57;;;;;;;;;;;14.80;99.90;;;;;;4937564;29;19919;-73
2021/09/23 01:18:23;;;;;;;;;;;14.80;99.90;;;;;;4920120;29;19922;-74
2021/09/23 01:20:48;;;;;;;;;;;14.80;99.90;;;;;;4920352;29;19919;-74
2021/09/23 01:23:14;;;;;;;;;;;14.70;99.90;;;;;;4919165;29;19911;-76
2021/09/23 01:25:39;;;;;;;;;;;14.70;99.90;;;;;;4919667;29;19922;-74
2021/09/23 01:28:05;;;;;;;;;;;14.70;99.90;;;;;;4907197;29;19926;-74
2021/09/23 01:30:31;;;;;;;;;;;14.70;99.90;;;;;;4902729;29;19911;-74
2021/09/23 01:32:56;;;;;;;;;;;14.70;99.90;;;;;;4900994;29;20006;-74
2021/09/23 01:35:22;;;;;;;;;;;14.70;99.90;;;;;;4900376;29;20386;-74
2021/09/23 01:37:48;;;;;;;;;;;14.60;99.90;;;;;;4914831;29;19915;-74
2021/09/23 01:40:13;;;;;;;;;;;14.70;99.90;;;;;;4899501;29;19912;-73
2021/09/23 01:42:42;;;;;;;;;;;14.70;99.90;;;;;;4899222;29;19951;-74
2021/09/23 01:45:08;;;;;;;;;;;14.70;99.90;;;;;;4913797;29;19916;-74
2021/09/23 01:47:34;;;;;;;;;;;14.60;99.90;;;;;;4912367;29;19967;-75
2021/09/23 01:49:59;;;;;;;;;;;14.70;99.90;;;;;;4912437;29;19911;-74
2021/09/23 01:52:25;;;;;;;;;;;14.70;99.90;;;;;;4898348;29;19930;-73
2021/09/23 01:54:51;;;;;;;;;;;14.60;99.90;;;;;;4901859;29;19966;-74
2021/09/23 01:57:17;;;;;;;;;;;14.60;99.90;;;;;;4916378;29;19911;-73
2021/09/23 01:59:42;;;;;;;;;;;14.50;99.90;;;;;;4901122;29;20493;-74
2021/09/23 02:02:08;;;;;;;;;;;14.60;99.90;;;;;;4901521;29;20296;-74
2021/09/23 02:04:33;;;;;;;;;;;14.50;99.90;;;;;;4901240;29;19951;-73
2021/09/23 02:06:59;;;;;;;;;;;14.50;99.90;;;;;;4901697;29;20014;-74
2021/09/23 02:09:24;;;;;;;;;;;14.50;99.90;;;;;;4901079;29;19915;-74
2021/09/23 02:11:50;;;;;;;;;;;14.50;99.90;;;;;;4900946;29;20288;-74
2021/09/23 02:14:15;;;;;;;;;;;14.50;99.90;;;;;;4915767;29;19911;-74
2021/09/23 02:16:41;;;;;;;;;;;14.40;99.90;;;;;;4901424;29;19943;-74
2021/09/23 02:19:06;;;;;;;;;;;14.40;99.90;;;;;;4901303;29;20006;-75
2021/09/23 02:21:32;;;;;;;;;;;14.40;99.90;;;;;;4901597;29;19918;-73
2021/09/23 02:23:57;;;;;;;;;;;14.40;99.90;;;;;;4900188;29;19963;-73
2021/09/23 02:26:23;;;;;;;;;;;14.40;99.90;;;;;;4901186;29;19911;-74
2021/09/23 02:28:48;;;;;;;;;;;14.40;99.90;;;;;;4900414;29;19967;-73
2021/09/23 02:31:15;;;;;;;;;;;14.40;99.90;;;;;;4915691;29;19912;-73
2021/09/23 02:33:40;;;;;;;;;;;14.30;99.90;;;;;;4900027;29;20361;-73
2021/09/23 02:36:06;;;;;;;;;;;14.30;99.90;;;;;;4900901;29;20003;-73
2021/09/23 02:38:32;;;;;;;;;;;14.30;99.90;;;;;;4901047;29;19914;-74
2021/09/23 02:40:57;;;;;;;;;;;14.30;99.90;;;;;;4900844;29;19913;-74
2021/09/23 02:43:23;;;;;;;;;;;14.20;99.90;;;;;;4900987;29;19907;-74
2021/09/23 02:45:49;;;;;;;;;;;14.20;99.90;;;;;;4901277;29;20308;-74
2021/09/23 02:48:14;;;;;;;;;;;14.20;99.90;;;;;;4899766;29;19919;-74
2021/09/23 02:50:40;;;;;;;;;;;14.20;99.90;;;;;;4901099;29;20013;-73
2021/09/23 02:53:05;;;;;;;;;;;14.20;99.90;;;;;;4899388;29;20288;-74
2021/09/23 02:55:31;;;;;;;;;;;14.20;99.90;;;;;;4899106;29;19918;-74
2021/09/23 02:57:56;;;;;;;;;;;14.20;99.90;;;;;;4900961;29;20361;-74
2021/09/23 03:00:22;;;;;;;;;;;14.20;99.90;;;;;;4900944;29;19907;-74
2021/09/23 03:02:47;;;;;;;;;;;14.10;99.90;;;;;;4900541;29;19912;-73
2021/09/23 03:05:13;;;;;;;;;;;14.10;99.90;;;;;;4898106;29;20364;-73
2021/09/23 03:07:38;;;;;;;;;;;14.10;99.90;;;;;;4899040;29;20292;-74
2021/09/23 03:10:04;;;;;;;;;;;14.00;99.90;;;;;;4899759;29;19908;-73
2021/09/23 03:12:30;;;;;;;;;;;14.00;99.90;;;;;;4899332;29;19966;-73
2021/09/23 03:14:55;;;;;;;;;;;14.00;99.90;;;;;;4914408;29;20007;-73
2021/09/23 03:17:21;;;;;;;;;;;14.00;99.90;;;;;;4900758;29;19918;-73
2021/09/23 03:19:47;;;;;;;;;;;14.00;99.90;;;;;;4900326;29;20387;-73
2021/09/23 03:22:16;;;;;;;;;;;14.00;99.90;;;;;;4899465;29;20284;-74
2021/09/23 03:24:42;;;;;;;;;;;14.00;99.90;;;;;;4899987;29;19912;-74
2021/09/23 03:27:07;;;;;;;;;;;13.90;99.90;;;;;;4898524;29;20380;-74
2021/09/23 03:29:33;;;;;;;;;;;13.90;99.90;;;;;;4900361;29;19919;-74
2021/09/23 03:31:58;;;;;;;;;;;13.90;99.90;;;;;;4900561;29;20009;-74
2021/09/23 03:34:24;;;;;;;;;;;13.90;99.90;;;;;;4898820;29;19912;-74
2021/09/23 03:36:49;;;;;;;;;;;13.90;99.90;;;;;;4899652;29;20361;-74
2021/09/23 03:39:15;;;;;;;;;;;13.90;99.90;;;;;;4900015;29;19918;-74
2021/09/23 03:41:40;;;;;;;;;;;13.90;99.90;;;;;;4914633;29;19939;-74
2021/09/23 03:44:06;;;;;;;;;;;13.90;99.90;;;;;;4899653;29;19966;-74
2021/09/23 03:46:33;;;;;;;;;;;13.90;99.90;;;;;;4900036;29;20005;-74
2021/09/23 03:48:58;;;;;;;;;;;13.90;99.90;;;;;;4900436;29;19969;-74
2021/09/23 03:51:24;;;;;;;;;;;13.90;99.90;;;;;;4899709;29;19974;-74
2021/09/23 03:53:49;;;;;;;;;;;13.90;99.90;;;;;;4900577;29;19967;-75
2021/09/23 03:56:15;;;;;;;;;;;13.90;99.90;;;;;;4901159;29;20281;-74
2021/09/23 03:58:41;;;;;;;;;;;13.90;99.90;;;;;;4901363;29;19911;-75
2021/09/23 04:01:06;;;;;;;;;;;13.90;99.90;;;;;;4903800;29;20380;-75
2021/09/23 04:03:32;;;;;;;;;;;13.90;99.90;;;;;;4913508;29;19911;-75
2021/09/23 04:05:57;;;;;;;;;;;13.80;99.90;;;;;;4917682;29;19922;-74
2021/09/23 04:08:23;;;;;;;;;;;13.80;99.90;;;;;;4918567;29;19899;-74
2021/09/23 04:10:48;;;;;;;;;;;13.80;99.90;;;;;;4919138;29;19946;-74
2021/09/23 04:13:14;;;;;;;;;;;13.80;99.90;;;;;;4919513;29;19899;-75
2021/09/23 04:15:42;;;;;;;;;;;13.80;99.90;;;;;;4920124;29;19952;-74
2021/09/23 04:18:08;;;;;;;;;;;13.80;99.90;;;;;;4915650;29;19912;-75
2021/09/23 04:20:34;;;;;;;;;;;13.80;99.90;;;;;;4905100;29;19912;-75
2021/09/23 04:22:59;;;;;;;;;;;13.70;99.90;;;;;;4902654;29;19955;-74
2021/09/23 04:25:25;;;;;;;;;;;13.80;99.90;;;;;;4903678;29;19943;-75
2021/09/23 04:27:51;;;;;;;;;;;13.80;99.90;;;;;;4916485;29;19915;-75
2021/09/23 04:30:17;;;;;;;;;;;13.80;99.90;;;;;;4901916;29;19911;-74
2021/09/23 04:32:42;;;;;;;;;;;13.80;99.90;;;;;;4901493;29;20010;-75
2021/09/23 04:35:08;;;;;;;;;;;13.80;99.90;;;;;;4900004;29;19915;-74
2021/09/23 04:37:33;;;;;;;;;;;13.80;99.90;;;;;;4899356;29;19922;-74
2021/09/23 04:39:59;;;;;;;;;;;13.80;99.90;;;;;;4899069;29;20330;-75
2021/09/23 04:42:24;;;;;;;;;;;13.90;99.90;;;;;;4899014;29;19911;-74
2021/09/23 04:44:50;;;;;;;;;;;13.80;99.90;;;;;;4898528;29;19912;-74
2021/09/23 04:47:15;;;;;;;;;;;13.80;99.90;;;;;;4899990;29;19915;-75
2021/09/23 04:49:44;;;;;;;;;;;13.90;99.90;;;;;;4898979;29;19923;-75
2021/09/23 04:52:10;;;;;;;;;;;13.80;99.90;;;;;;4898152;29;19911;-75
2021/09/23 04:54:35;;;;;;;;;;;13.80;99.90;;;;;;4898273;29;19912;-75
2021/09/23 04:57:01;;;;;;;;;;;13.80;99.90;;;;;;4898911;29;19975;-75
2021/09/23 04:59:26;;;;;;;;;;;13.90;99.90;;;;;;4897260;29;20395;-75
2021/09/23 05:01:51;;;;;;;;;;;13.90;99.90;;;;;;4898572;29;20411;-74
2021/09/23 05:04:17;;;;;;;;;;;13.90;99.90;;;;;;4897853;29;19921;-74
2021/09/23 05:06:43;;;;;;;;;;;14.00;99.90;;;;;;4898131;29;19920;-74
2021/09/23 05:09:08;;;;;;;;;;;14.00;99.90;;;;;;4895849;29;20050;-75
2021/09/23 05:11:34;;;;;;;;;;;14.00;99.90;;;;;;4898243;29;20288;-76
2021/09/23 05:13:59;;;;;;;;;;;14.00;99.90;;;;;;4898366;29;19919;-75
2021/09/23 05:16:25;;;;;;;;;;;14.10;99.90;;;;;;4912752;29;20385;-74
2021/09/23 05:18:50;;;;;;;;;;;14.10;99.90;;;;;;4896730;29;19911;-74
2021/09/23 05:21:16;;;;;;;;;;;14.10;99.90;;;;;;4896980;29;20018;-74
2021/09/23 05:23:41;;;;;;;;;;;14.10;99.90;;;;;;4898164;29;19911;-74
2021/09/23 05:26:07;;;;;;;;;;;14.10;99.90;;;;;;4898353;29;20394;-74
2021/09/23 05:28:32;;;;;;;;;;;14.10;99.90;;;;;;4895989;29;19947;-74
2021/09/23 05:30:58;;;;;;;;;;;14.10;99.90;;;;;;4898112;29;20010;-75
2021/09/23 05:33:23;;;;;;;;;;;14.20;99.90;;;;;;4898131;29;19943;-75
2021/09/23 05:35:49;;;;;;;;;;;14.10;99.90;;;;;;4896871;29;19917;-75
2021/09/23 05:38:14;;;;;;;;;;;14.10;99.90;;;;;;4896327;29;20425;-75
2021/09/23 05:40:40;;;;;;;;;;;14.20;99.90;;;;;;4897935;29;20373;-74
2021/09/23 05:43:06;;;;;;;;;;;14.20;99.90;;;;;;4896914;29;19912;-75
2021/09/23 05:45:32;;;;;;;;;;;14.20;99.90;;;;;;4896793;29;19965;-75
2021/09/23 05:47:57;;;;;;;;;;;14.20;99.90;;;;;;4897836;29;20392;-75
2021/09/23 05:50:23;;;;;;;;;;;14.30;99.90;;;;;;4898193;29;19911;-73
2021/09/23 05:52:48;;;;;;;;;;;14.40;99.90;;;;;;4897306;29;19911;-74
2021/09/23 05:55:14;;;;;;;;;;;14.40;99.90;;;;;;4898189;29;19918;-73
2021/09/23 05:57:40;;;;;;;;;;;14.40;99.90;;;;;;4897429;29;19907;-73
2021/09/23 06:00:07;;;;;;;;;;;14.40;99.90;;;;;;4898034;29;20284;-74
2021/09/23 06:02:33;;;;;;;;;;;14.50;99.90;;;;;;4897945;29;19915;-73
2021/09/23 06:04:59;;;;;;;;;;;14.50;99.90;;;;;;4897634;29;20273;-73
2021/09/23 06:07:24;;;;;;;;;;;14.50;99.90;;;;;;4897645;29;20361;-73
2021/09/23 06:09:50;;;;;;;;;;;14.50;99.90;;;;;;4897093;29;19916;-74
2021/09/23 06:12:15;;;;;;;;;;;14.60;99.90;;;;;;4912989;29;19920;-74
2021/09/23 06:14:41;;;;;;;;;;;14.60;99.90;;;;;;4898597;29;19915;-75
2021/09/23 06:17:06;;;;;;;;;;;14.70;99.90;;;;;;4899807;29;19955;-74
2021/09/23 06:19:31;;;;;;;;;;;14.80;99.90;;;;;;4898892;29;19915;-76
2021/09/23 06:21:57;;;;;;;;;;;14.90;99.90;;;;;;4898486;29;19907;-76
2021/09/23 06:24:23;;;;;;;;;;;14.90;99.90;;;;;;4896635;29;19922;-75
2021/09/23 06:26:48;;;;;;;;;;;14.90;99.90;;;;;;4897900;29;19915;-75
2021/09/23 06:29:14;;;;;;;;;;;14.90;99.90;;;;;;4896956;29;20010;-75
2021/09/23 06:31:39;;;;;;;;;;;15.00;99.90;;;;;;4897943;29;19911;-75
2021/09/23 06:34:05;;;;;;;;;;;15.10;99.90;;;;;;4896182;29;19961;-75
2021/09/23 06:36:33;;;;;;;;;;;15.10;99.90;;;;;;4911479;29;19919;-76
2021/09/23 06:38:59;;;;;;;;;;;15.20;99.90;;;;;;4898336;29;19915;-75
2021/09/23 06:41:24;;;;;;;;;;;15.20;99.90;;;;;;4900932;29;19931;-75
2021/09/23 06:43:51;;;;;;;;;;;15.20;99.90;;;;;;4900961;29;19915;-75
2021/09/23 06:46:17;;;;;;;;;;;15.30;99.90;;;;;;4899440;29;20329;-75
2021/09/23 06:48:42;;;;;;;;;;;15.30;99.90;;;;;;4899581;29;19915;-75
2021/09/23 06:51:08;;;;;;;;;;;15.30;99.90;;;;;;4904634;29;20396;-74
2021/09/23 06:53:33;;;;;;;;;;;15.30;99.90;;;;;;4903347;29;19915;-75
2021/09/23 06:55:59;;;;;;;;;;;15.30;99.90;;;;;;4903007;29;19911;-76
2021/09/23 06:58:24;;;;;;;;;;;15.30;99.90;;;;;;4900352;29;19911;-75
2021/09/23 07:00:50;;;;;;;;;;;15.40;99.90;;;;;;4900323;29;19967;-75
2021/09/23 07:03:15;;;;;;;;;;;15.50;99.90;;;;;;4900498;29;20361;-75
2021/09/23 07:05:43;;;;;;;;;;;15.50;99.90;;;;;;4914748;29;19911;-75
2021/09/23 07:08:09;;;;;;;;;;;15.60;99.90;;;;;;4900399;29;20308;-75
2021/09/23 07:10:35;;;;;;;;;;;15.70;99.90;;;;;;4895838;29;20376;-74
2021/09/23 07:13:00;;;;;;;;;;;15.70;99.90;;;;;;4899032;29;19919;-77
2021/09/23 07:15:26;;;;;;;;;;;15.80;99.90;;;;;;4900258;29;19966;-77
2021/09/23 07:17:51;;;;;;;;;;;15.90;99.90;;;;;;4900388;29;19918;-78
2021/09/23 07:20:17;;;;;;;;;;;15.90;99.90;;;;;;4914557;29;19912;-77
2021/09/23 07:22:42;;;;;;;;;;;16.00;99.90;;;;;;4899307;29;20043;-78
2021/09/23 07:25:08;;;;;;;;;;;16.00;99.90;;;;;;4900344;29;20293;-77
2021/09/23 07:27:33;;;;;;;;;;;16.10;99.90;;;;;;4899685;29;19971;-76
2021/09/23 07:29:59;;;;;;;;;;;16.20;99.90;;;;;;4899967;29;19918;-77
2021/09/23 07:32:24;;;;;;;;;;;16.30;99.90;;;;;;4900474;29;20318;-79
2021/09/23 07:34:50;;;;;;;;;;;16.40;99.90;;;;;;4900098;29;19957;-78
2021/09/23 07:37:15;;;;;;;;;;;16.40;99.90;;;;;;4898652;29;20368;-78
2021/09/23 07:39:41;;;;;;;;;;;16.40;99.90;;;;;;4900526;29;19907;-77
2021/09/23 07:42:07;;;;;;;;;;;16.50;99.90;;;;;;4898943;29;20331;-76
2021/09/23 07:44:33;;;;;;;;;;;16.60;99.90;;;;;;4898731;29;19911;-76
2021/09/23 07:46:59;;;;;;;;;;;16.70;99.90;;;;;;4899892;29;19916;-77
2021/09/23 07:49:25;;;;;;;;;;;16.70;99.90;;;;;;4899840;29;19977;-76
2021/09/23 07:51:51;;;;;;;;;;;16.70;99.90;;;;;;4898883;29;19911;-76
2021/09/23 07:54:16;;;;;;;;;;;16.80;99.90;;;;;;4898421;29;20373;-76
2021/09/23 07:56:43;;;;;;;;;;;16.90;99.90;;;;;;4898954;29;19923;-76
2021/09/23 07:59:09;;;;;;;;;;;16.90;99.90;;;;;;4900173;29;19963;-76
2021/09/23 08:01:34;;;;;;;;;;;17.00;99.90;;;;;;4899334;29;19952;-76
2021/09/23 08:04:00;;;;;;;;;;;17.10;99.90;;;;;;4898616;29;20090;-75
2021/09/23 08:06:25;;;;;;;;;;;17.10;99.90;;;;;;4899169;29;19911;-76
2021/09/23 08:08:51;;;;;;;;;;;17.20;99.90;;;;;;4897962;29;20290;-77
2021/09/23 08:11:16;;;;;;;;;;;17.30;99.90;;;;;;4897631;29;19918;-74
2021/09/23 08:13:42;;;;;;;;;;;17.40;99.90;;;;;;4898615;29;19916;-76
2021/09/23 08:16:08;;;;;;;;;;;17.60;99.90;;;;;;4897972;29;19967;-74
2021/09/23 08:18:33;;;;;;;;;;;17.70;99.90;;;;;;4899055;29;19915;-74
2021/09/23 08:20:59;;;;;;;;;;;17.80;99.90;;;;;;4898543;29;19911;-72
2021/09/23 08:23:25;;;;;;;;;;;17.80;99.90;;;;;;4897954;29;19994;-76
2021/09/23 08:25:52;;;;;;;;;;;17.70;99.90;;;;;;4898079;29;20409;-74
2021/09/23 08:28:23;;;;;;;;;;;17.70;99.90;;;;;;4899167;29;19915;-73
2021/09/23 08:30:49;;;;;;;;;;;17.80;99.90;;;;;;4899228;29;19953;-76
2021/09/23 08:33:15;;;;;;;;;;;17.70;99.90;;;;;;4899326;29;20292;-77
2021/09/23 08:35:41;;;;;;;;;;;17.70;99.90;;;;;;4899101;29;19912;-76
2021/09/23 08:38:06;;;;;;;;;;;17.70;99.90;;;;;;4897843;29;19919;-74
2021/09/23 08:40:32;;;;;;;;;;;17.70;99.90;;;;;;4899108;29;19912;-75
2021/09/23 08:42:57;;;;;;;;;;;17.70;99.90;;;;;;4899184;29;19912;-76
2021/09/23 08:45:23;;;;;;;;;;;17.50;99.90;;;;;;4899327;29;20014;-76
2021/09/23 08:47:48;;;;;;;;;;;17.40;99.90;;;;;;4899140;29;20469;-75
2021/09/23 08:50:15;;;;;;;;;;;17.50;99.90;;;;;;4898443;29;19962;-76
2021/09/23 08:52:41;;;;;;;;;;;17.50;99.90;;;;;;4899602;29;20014;-76
2021/09/23 08:55:07;;;;;;;;;;;17.50;99.90;;;;;;4900030;29;20396;-76
2021/09/23 08:57:32;;;;;;;;;;;17.50;99.90;;;;;;4899925;29;19911;-75
2021/09/23 09:00:05;;;;;;;;;;;17.60;99.90;;;;;;4899932;29;20034;-75
2021/09/23 09:02:30;;;;;;;;;;;17.80;99.90;;;;;;4900062;29;19973;-75
2021/09/23 09:04:57;;;;;;;;;;;17.90;99.90;;;;;;4900676;29;19911;-75
2021/09/23 09:07:26;;;;;;;;;;;18.10;99.90;;;;;;4899648;29;19911;-76
2021/09/23 09:10:05;;;;;;;;;;;18.20;99.90;;;;;;4901728;29;19916;-75
2021/09/23 09:12:31;;;;;;;;;;;18.30;99.90;;;;;;4925777;29;19919;-76
2021/09/23 09:14:56;;;;;;;;;;;18.30;99.90;;;;;;4915881;29;19945;-75
2021/09/23 09:17:22;;;;;;;;;;;18.30;99.90;;;;;;4916792;29;19908;-76
2021/09/23 09:19:47;;;;;;;;;;;18.30;99.90;;;;;;4917731;29;19953;-76
2021/09/23 09:22:14;;;;;;;;;;;18.20;99.90;;;;;;4917383;29;19891;-76
2021/09/23 09:24:51;;;;;;;;;;;18.30;99.90;;;;;;4919081;29;20000;-76
2021/09/23 09:27:32;;;;;;;;;;;18.40;99.90;;;;;;4919361;29;19918;-76
2021/09/23 09:30:07;;;;;;;;;;;18.60;99.90;;;;;;4919030;29;20034;-76
2021/09/23 09:32:40;;;;;;;;;;;18.70;99.90;;;;;;4919080;29;19907;-76
2021/09/23 09:35:06;;;;;;;;;;;18.70;99.90;;;;;;4919948;29;19955;-76
2021/09/23 09:37:32;;;;;;;;;;;18.60;99.90;;;;;;4918516;29;19966;-75
2021/09/23 09:39:58;;;;;;;;;;;18.50;99.90;;;;;;4919042;29;19923;-76
2021/09/23 09:42:25;;;;;;;;;;;18.40;99.90;;;;;;4917483;29;19931;-75
2021/09/23 09:44:55;;;;;;;;;;;18.40;99.90;;;;;;4905153;29;19907;-76
2021/09/23 09:47:33;;;;;;;;;;;18.40;99.90;;;;;;4903399;29;19912;-75
2021/09/23 09:50:09;;;;;;;;;;;18.30;99.90;;;;;;4917844;29;19923;-76
2021/09/23 09:52:34;;;;;;;;;;;18.20;99.90;;;;;;4901709;29;19915;-75
2021/09/23 09:55:01;;;;;;;;;;;18.10;99.90;;;;;;4900863;29;20038;-76
2021/09/23 09:57:26;;;;;;;;;;;18.20;99.90;;;;;;4900792;29;19911;-76
2021/09/23 09:59:52;;;;;;;;;;;18.20;99.90;;;;;;4900985;29;19934;-77
2021/09/23 10:02:17;;;;;;;;;;;18.30;99.90;;;;;;4899852;29;19971;-78
2021/09/23 10:04:43;;;;;;;;;;;18.40;99.90;;;;;;4898874;29;19979;-75
2021/09/23 10:07:11;;;;;;;;;;;18.40;99.90;;;;;;4898866;29;20010;-76
2021/09/23 10:09:38;;;;;;;;;;;18.40;99.90;;;;;;4897561;29;20296;-75
2021/09/23 10:12:05;;;;;;;;;;;18.30;99.90;;;;;;4897412;29;19915;-74
2021/09/23 10:14:31;;;;;;;;;;;18.30;99.90;;;;;;4889440;29;19911;-75
2021/09/23 10:16:57;;;;;;;;;;;18.30;99.90;;;;;;4900564;29;19911;-75
2021/09/23 10:19:23;;;;;;;;;;;18.20;99.90;;;;;;4898982;29;19918;-75
2021/09/23 10:21:49;;;;;;;;;;;18.30;99.90;;;;;;4915594;29;19975;-74
2021/09/23 10:24:16;;;;;;;;;;;18.20;99.90;;;;;;4901535;29;19912;-75
2021/09/23 10:26:43;;;;;;;;;;;18.30;99.90;;;;;;4901521;29;19912;-75
2021/09/23 10:29:10;;;;;;;;;;;18.30;99.90;;;;;;4901306;29;19923;-75
2021/09/23 10:31:36;;;;;;;;;;;18.40;99.90;;;;;;4901440;29;19911;-75
2021/09/23 10:34:03;;;;;;;;;;;18.30;99.90;;;;;;4901438;29;19911;-75
2021/09/23 10:36:29;;;;;;;;;;;18.40;99.90;;;;;;4901480;29;20010;-75
2021/09/23 10:38:55;;;;;;;;;;;18.60;99.90;;;;;;4901534;29;20011;-75
2021/09/23 10:41:22;;;;;;;;;;;18.60;99.90;;;;;;4915841;29;20015;-75
2021/09/23 10:43:48;;;;;;;;;;;18.70;99.90;;;;;;4901430;29;19916;-75
2021/09/23 10:46:15;;;;;;;;;;;18.80;99.90;;;;;;4901125;29;19959;-75
2021/09/23 10:48:40;;;;;;;;;;;18.90;99.90;;;;;;4915718;29;19922;-75
2021/09/23 10:51:07;;;;;;;;;;;18.90;99.90;;;;;;4899788;29;19911;-75
2021/09/23 10:53:33;;;;;;;;;;;19.10;99.90;;;;;;4901063;29;19967;-74
2021/09/23 10:56:02;;;;;;;;;;;19.40;99.90;;;;;;4901044;29;19911;-74
2021/09/23 10:58:28;;;;;;;;;;;19.60;99.90;;;;;;4901143;29;20270;-75
2021/09/23 11:00:53;;;;;;;;;;;19.70;99.90;;;;;;4900799;29;20377;-75
2021/09/23 11:03:20;;;;;;;;;;;19.80;99.90;;;;;;4915065;29;19911;-74
2021/09/23 11:05:47;;;;;;;;;;;19.80;99.90;;;;;;4899424;29;19919;-75
2021/09/23 11:08:15;;;;;;;;;;;20.00;99.90;;;;;;4900910;29;20292;-75
2021/09/23 11:10:42;;;;;;;;;;;20.20;99.90;;;;;;4900882;29;20013;-75
2021/09/23 11:13:08;;;;;;;;;;;20.40;99.90;;;;;;4900566;29;20336;-75
2021/09/23 11:15:35;;;;;;;;;;;20.50;99.90;;;;;;4900785;29;20006;-75
2021/09/23 11:18:01;;;;;;;;;;;20.70;99.90;;;;;;4915152;29;19917;-75
2021/09/23 11:20:28;;;;;;;;;;;20.70;99.90;;;;;;4898928;29;20321;-75
2021/09/23 11:22:57;;;;;;;;;;;20.70;99.90;;;;;;4900656;29;19918;-75
2021/09/23 11:25:24;;;;;;;;;;;20.70;99.90;;;;;;4899267;29;19918;-74
2021/09/23 11:27:51;;;;;;;;;;;20.70;99.90;;;;;;4900458;29;19997;-75
2021/09/23 11:30:18;;;;;;;;;;;20.80;99.90;;;;;;4900505;29;20288;-75
2021/09/23 11:32:51;;;;;;;;;;;20.50;99.90;;;;;;4900475;29;19911;-75
2021/09/23 11:35:24;;;;;;;;;;;20.50;99.90;;;;;;4900565;29;19919;-74
2021/09/23 11:37:50;;;;;;;;;;;20.40;99.90;;;;;;4881494;29;20002;-75
2021/09/23 11:40:22;;;;;;;;;;;20.50;99.90;;;;;;4881844;29;20341;-75
2021/09/23 11:42:48;;;;;;;;;;;20.40;99.90;;;;;;4896251;29;19915;-74
2021/09/23 11:45:19;;;;;;;;;;;20.40;99.90;;;;;;4896256;29;19980;-75
2021/09/23 11:47:48;;;;;;;;;;;20.30;99.90;;;;;;4882149;29;19914;-75
2021/09/23 11:50:24;;;;;;;;;;;20.30;99.90;;;;;;4896319;29;19954;-75
2021/09/23 11:52:52;;;;;;;;;;;20.30;99.90;;;;;;4886441;29;19914;-75
2021/09/23 11:55:17;;;;;;;;;;;20.30;99.90;;;;;;4900701;29;19915;-75
2021/09/23 11:57:43;;;;;;;;;;;20.40;99.90;;;;;;4898639;29;19907;-75
2021/09/23 12:00:09;;;;;;;;;;;20.50;99.90;;;;;;4899866;29;19915;-75
2021/09/23 12:02:34;;;;;;;;;;;20.60;99.90;;;;;;4900287;29;19907;-75
2021/09/23 12:05:00;;;;;;;;;;;20.60;99.90;;;;;;4898803;29;19907;-75
2021/09/23 12:07:27;;;;;;;;;;;20.60;99.90;;;;;;4899065;29;20361;-75
2021/09/23 12:10:00;;;;;;;;;;;20.50;99.90;;;;;;4899455;29;20293;-75
2021/09/23 12:12:26;;;;;;;;;;;20.50;99.90;;;;;;4897935;29;20378;-74
2021/09/23 12:14:52;;;;;;;;;;;20.40;99.90;;;;;;4899679;29;19914;-75
2021/09/23 12:17:18;;;;;;;;;;;20.30;99.90;;;;;;4899776;29;19919;-75
2021/09/23 12:19:53;;;;;;;;;;;20.20;99.90;;;;;;4899541;29;20287;-76
2021/09/23 12:22:31;;;;;;;;;;;20.00;99.90;;;;;;4899544;29;19915;-75
2021/09/23 12:24:57;;;;;;;;;;;19.90;99.90;;;;;;4899433;29;19948;-75
2021/09/23 12:27:23;;;;;;;;;;;19.80;99.90;;;;;;4899490;29;20356;-75
2021/09/23 12:29:51;;;;;;;;;;;19.70;99.90;;;;;;4898049;29;20277;-75
2021/09/23 12:32:17;;;;;;;;;;;19.70;99.90;;;;;;4899391;29;20001;-75
2021/09/23 12:34:47;;;;;;;;;;;19.80;99.90;;;;;;4913714;29;19962;-75
2021/09/23 12:37:13;;;;;;;;;;;19.80;99.90;;;;;;4898696;29;19912;-74
2021/09/23 12:39:39;;;;;;;;;;;19.70;99.90;;;;;;4899189;29;19919;-75
2021/09/23 12:42:09;;;;;;;;;;;19.60;99.90;;;;;;4913478;29;20330;-75
2021/09/23 12:44:36;;;;;;;;;;;19.60;99.90;;;;;;4913505;29;19911;-75
2021/09/23 12:47:04;;;;;;;;;;;19.60;99.90;;;;;;4898934;29;19911;-75
2021/09/23 12:49:30;;;;;;;;;;;19.60;99.90;;;;;;4913150;29;19921;-74
2021/09/23 12:52:08;;;;;;;;;;;19.60;99.90;;;;;;4898916;29;20002;-75
2021/09/23 12:54:34;;;;;;;;;;;19.60;99.90;;;;;;4898854;29;20404;-75
2021/09/23 12:57:03;;;;;;;;;;;19.70;99.90;;;;;;4898787;29;19911;-75
2021/09/23 12:59:29;;;;;;;;;;;19.50;99.90;;;;;;4913150;29;19969;-74
2021/09/23 13:02:12;;;;;;;;;;;19.40;99.90;;;;;;4898577;29;19965;-75
2021/09/23 13:04:38;;;;;;;;;;;19.20;99.90;;;;;;4898675;29;19915;-74
2021/09/23 13:07:19;;;;;;;;;;;19.10;99.90;;;;;;4898638;29;19915;-75
2021/09/23 13:10:01;;;;;;;;;;;19.10;99.90;;;;;;4912665;29;20355;-75
2021/09/23 13:12:40;;;;;;;;;;;19.00;99.90;;;;;;4898408;29;19915;-74
2021/09/23 13:15:15;;;;;;;;;;;18.90;99.90;;;;;;4898712;29;19911;-74
2021/09/23 13:17:41;;;;;;;;;;;18.80;99.90;;;;;;4898565;29;19918;-73
2021/09/23 13:20:07;;;;;;;;;;;19.00;99.90;;;;;;4898506;29;20005;-74
2021/09/23 13:22:32;;;;;;;;;;;19.10;99.90;;;;;;4898851;29;19912;-74
2021/09/23 13:24:58;;;;;;;;;;;19.20;99.90;;;;;;4898673;29;19915;-75
2021/09/23 13:27:24;;;;;;;;;;;19.30;99.90;;;;;;4896802;29;19911;-76
2021/09/23 13:29:50;;;;;;;;;;;19.30;99.90;;;;;;4898316;29;19923;-74
2021/09/23 13:32:15;;;;;;;;;;;19.30;99.90;;;;;;4897036;29;19911;-74
2021/09/23 13:34:41;;;;;;;;;;;19.40;99.90;;;;;;4898013;29;19911;-74
2021/09/23 13:37:06;;;;;;;;;;;19.50;99.90;;;;;;4912765;29;19912;-74
2021/09/23 13:39:32;;;;;;;;;;;19.50;99.90;;;;;;4896855;29;20293;-74
2021/09/23 13:41:57;;;;;;;;;;;19.60;99.90;;;;;;4898355;29;20324;-74
2021/09/23 13:44:23;;;;;;;;;;;19.70;99.90;;;;;;4896968;29;19918;-75
2021/09/23 13:46:48;;;;;;;;;;;19.70;99.90;;;;;;4898400;29;19911;-75
2021/09/23 13:49:14;;;;;;;;;;;19.80;99.90;;;;;;4897574;29;20055;-75
2021/09/23 13:51:39;;;;;;;;;;;19.80;99.90;;;;;;4898181;29;19916;-74
2021/09/23 13:54:05;;;;;;;;;;;19.50;99.90;;;;;;4898250;29;19919;-74
2021/09/23 13:56:31;;;;;;;;;;;19.50;99.90;;;;;;4898181;29;20373;-75
2021/09/23 13:58:56;;;;;;;;;;;19.50;99.90;;;;;;4898266;29;20387;-74
2021/09/23 14:01:22;;;;;;;;;;;19.40;99.90;;;;;;4896757;29;20289;-74
2021/09/23 14:03:47;;;;;;;;;;;19.30;99.90;;;;;;4912624;29;20384;-75
2021/09/23 14:06:13;;;;;;;;;;;19.40;99.90;;;;;;4898042;29;20477;-75
2021/09/23 14:08:38;;;;;;;;;;;19.40;99.90;;;;;;4896786;29;19980;-75
2021/09/23 14:11:04;;;;;;;;;;;19.60;99.90;;;;;;4898132;29;19967;-75